Poteau, OK (74953)

2:41 AM CST on February 01, 2015 (GMT -0600)
Kerr | Change Station
CLOSE
Current Station
Airport
Location: Poteau,
Elevation: 453 ft
Nearby Weather Stations

Elev 453 ft 35.02 °N, 94.62 °W | Updated 6 minutes ago

Rain
Rain
48 °F
Feels Like 48 °F
N
5
Wind Variable Wind from WSW

Today
High -- | Low -- °F
--% Chance of Precip.
Yesterday
High -- | Low -- °F
Precip. -- in
7:17 AM 5:46 PM
Waxing Gibbous, 94% visible
Pressure 29.82 in
Visibility 4.0 miles
Clouds Scattered Clouds 1000 ft
Overcast 1500 ft
Dew Point 46 °F
Humidity 92%
Rainfall 0.68 in
Snow Depth Not available.
UV 0 out of 12
Pollen 3.60 out of 12
Air Quality Not available.
Flu Activity Not available.
METAR KRKR 010835Z AUTO 24004KT 4SM +RA SCT010 OVC015 09/08 A2982 RMK AO2 P0016 T00880076

More Conditions Fewer Conditions

Pressure 29.82 in
Visibility 4.0 miles
Clouds Scattered Clouds 1000 ft
Overcast 1500 ft
Dew Point 46 °F
Humidity 92%
Rainfall 0.68 in
Snow Depth Not available.
UV 0 out of 12
Pollen 3.60 out of 12
Air Quality Not available.
Flu Activity Not available.
METAR KRKR 010835Z AUTO 24004KT 4SM +RA SCT010 OVC015 09/08 A2982 RMK AO2 P0016 T00880076

More Conditions Fewer Conditions

Nowcast | as of 12:57 am CST on February 1, 2015

At 1 am...National Weather Service radars continued to detect a large area of rainfall affecting all of eastern Oklahoma and northwest Arkansas. Precipitation amounts remain light. Through 3 am...rain or drizzle will persist across much of eastern Oklahoma and northwest Arkansas. Precipitation amounts are expected to remain rather light. Precipitation will start coming to an end from the west.

×

10-Day Weather Forecast

Almanac

Astronomy

Feb. 01, 2015 Rise Set
Actual Time
Civil Twilight
Nautical Twilight
Astronomical Twilight
Moon
Length of Visible Light
Length of Day
Tomorrow will be .
, % of the Moon is Illuminated

Today's Extremes

State Highs State Lows

Community

WunderPhotos

Upload Photos

1,792,338 photos uploaded!

WunderBlogs® & News

Nearby

Air Quality

  Air Quality AQ Index Pollutant
Not available.

Snow Depth

Station Depth Elevation

Earthquake Activity

City Distance Mag. Time & Date
Minimum magnitude displayed is 2.5.

Coastal Water Temperatures

Place Temperature

Nearby Weather Stations